Time;durP1;ratioP1;P1;durP2;ratioP2;P2;SDS_P1;SDS_P2;PMS_P1;PMS_P2;Temp;Humidity;BMP_temperature;BMP_pressure;BME280_temperature;BME280_humidity;BME280_pressure;Samples;Min_cycle;Max_cycle;Signal;HPM_P1;HPM_P2
2022/12/02 00:01:21;;;;;;;103.70;34.28;;;;;;;3.19;100.00;102603.69;4887110;29;20192;-72
2022/12/02 00:03:47;;;;;;;102.85;34.90;;;;;;;3.20;100.00;102593.13;4887906;29;20777;-72
2022/12/02 00:06:27;;;;;;;100.70;34.60;;;;;;;3.22;100.00;102598.41;4882418;29;20048;-73
2022/12/02 00:08:55;;;;;;;99.78;32.55;;;;;;;3.18;100.00;102596.66;4885977;29;20465;-74
2022/12/02 00:11:28;;;;;;;105.45;35.10;;;;;;;3.16;100.00;102588.72;4886369;29;20049;-75
2022/12/02 00:13:59;;;;;;;106.88;36.08;;;;;;;3.20;100.00;102585.22;4873883;29;20057;-74
2022/12/02 00:16:25;;;;;;;100.28;34.60;;;;;;;3.19;100.00;102580.81;4885094;29;20033;-75
2022/12/02 00:18:52;;;;;;;103.50;35.70;;;;;;;3.22;100.00;102575.56;4887889;29;20525;-74
2022/12/02 00:21:19;;;;;;;95.85;36.20;;;;;;;3.16;100.00;102572.03;4887489;29;20044;-75
2022/12/02 00:23:44;;;;;;;101.68;32.67;;;;;;;3.10;100.00;102576.47;4892526;29;20486;-73
2022/12/02 00:26:11;;;;;;;98.50;34.00;;;;;;;3.21;100.00;102567.63;4887375;29;20056;-74
2022/12/02 00:28:36;;;;;;;96.22;33.80;;;;;;;3.19;100.00;102569.41;4885654;29;20084;-73
2022/12/02 00:31:02;;;;;;;109.03;37.80;;;;;;;3.07;100.00;102573.00;4887397;29;20481;-75
2022/12/02 00:33:27;;;;;;;94.35;34.95;;;;;;;3.02;100.00;102577.41;4888528;29;20572;-73
2022/12/02 00:35:52;;;;;;;102.68;33.75;;;;;;;3.01;100.00;102573.00;4887766;29;20057;-73
2022/12/02 00:38:18;;;;;;;88.38;32.67;;;;;;;3.03;100.00;102576.50;4885850;29;20051;-73
2022/12/02 00:40:43;;;;;;;102.85;32.38;;;;;;;2.96;100.00;102577.41;4887526;29;20064;-74
2022/12/02 00:48:37;;;;;;;93.22;30.98;;;;;;;2.93;100.00;102570.41;4891293;29;20048;-73
2022/12/02 00:51:03;;;;;;;84.30;27.77;;;;;;;2.90;100.00;102572.16;4897005;29;20066;-75
2022/12/02 00:53:29;;;;;;;97.68;32.47;;;;;;;2.87;100.00;102561.66;4891441;29;20044;-74
2022/12/02 00:55:55;;;;;;;92.05;29.45;;;;;;;2.87;100.00;102562.53;4894779;29;20139;-73
2022/12/02 00:58:20;;;;;;;90.35;29.25;;;;;;;2.87;100.00;102556.38;4890455;29;20055;-75
2022/12/02 01:00:46;;;;;;;96.03;29.73;;;;;;;2.88;100.00;102553.75;4892240;29;20044;-72
2022/12/02 01:03:11;;;;;;;93.53;31.73;;;;;;;2.91;100.00;102545.78;4882890;29;20049;-73
2022/12/02 01:05:36;;;;;;;78.28;27.55;;;;;;;2.87;100.00;102551.13;4889637;29;20037;-75
2022/12/02 01:08:03;;;;;;;87.68;29.63;;;;;;;2.95;100.00;102551.94;4888949;29;20048;-74
2022/12/02 01:10:28;;;;;;;91.53;28.95;;;;;;;2.84;100.00;102547.59;4890298;29;20048;-73
2022/12/02 01:12:54;;;;;;;99.22;30.27;;;;;;;2.89;100.00;102538.81;4890685;29;20056;-73
2022/12/02 01:15:19;;;;;;;98.93;31.20;;;;;;;2.86;100.00;102526.50;4890877;29;20049;-72
2022/12/02 01:17:45;;;;;;;95.95;31.33;;;;;;;2.86;100.00;102539.66;4891060;29;20048;-74
2022/12/02 01:20:11;;;;;;;91.93;31.23;;;;;;;2.89;100.00;102534.41;4891352;29;20056;-75
2022/12/02 01:22:36;;;;;;;91.78;31.13;;;;;;;2.88;100.00;102539.69;4891484;29;20028;-73
2022/12/02 01:25:02;;;;;;;91.93;27.98;;;;;;;2.88;100.00;102542.31;4888309;29;20041;-72
2022/12/02 01:27:28;;;;;;;88.47;29.40;;;;;;;2.84;100.00;102536.19;4889193;29;20108;-74
2022/12/02 01:29:53;;;;;;;93.25;33.42;;;;;;;2.84;100.00;102544.97;4891038;29;20978;-73
2022/12/02 01:32:19;;;;;;;103.95;31.50;;;;;;;2.81;100.00;102537.09;4890472;29;20500;-72
2022/12/02 01:34:45;;;;;;;90.18;30.27;;;;;;;2.79;100.00;102544.09;4890506;29;20044;-73
2022/12/02 01:37:11;;;;;;;99.75;31.95;;;;;;;2.84;100.00;102546.72;4889012;29;20099;-74
2022/12/02 01:39:36;;;;;;;88.38;29.52;;;;;;;2.81;100.00;102550.25;4888670;29;20148;-73
2022/12/02 01:42:02;;;;;;;91.63;30.75;;;;;;;2.88;100.00;102542.31;4888628;29;20048;-72
2022/12/02 01:44:28;;;;;;;87.65;30.00;;;;;;;2.85;100.00;102540.56;4888388;29;20062;-74
2022/12/02 01:46:53;;;;;;;79.85;28.42;;;;;;;2.80;100.00;102540.56;4890564;29;20103;-74
2022/12/02 01:49:20;;;;;;;91.35;26.77;;;;;;;2.87;100.00;102527.41;4891210;29;20052;-73
2022/12/02 01:51:45;;;;;;;82.07;27.08;;;;;;;2.84;100.00;102537.06;4890520;29;20055;-73
2022/12/02 01:54:11;;;;;;;93.22;27.65;;;;;;;2.81;100.00;102539.72;4888063;29;20045;-74
2022/12/02 01:56:36;;;;;;;89.88;27.90;;;;;;;2.75;100.00;102541.47;4887879;29;20044;-75
2022/12/02 01:59:02;;;;;;;92.50;26.90;;;;;;;2.72;100.00;102545.00;4888510;29;20047;-74
2022/12/02 02:01:30;;;;;;;79.32;25.25;;;;;;;2.76;100.00;102535.31;4888876;29;20383;-73
2022/12/02 02:03:55;;;;;;;86.10;28.63;;;;;;;2.77;100.00;102535.34;4890652;29;20096;-74
2022/12/02 02:06:23;;;;;;;84.70;27.75;;;;;;;2.76;100.00;102537.97;4889307;29;20048;-74
2022/12/02 02:08:49;;;;;;;81.15;26.50;;;;;;;2.74;100.00;102539.72;4890812;29;20040;-73
2022/12/02 02:11:15;;;;;;;77.22;25.60;;;;;;;2.72;100.00;102536.25;4866304;29;20041;-74
2022/12/02 02:13:42;;;;;;;87.68;26.60;;;;;;;2.70;100.00;102544.13;4884165;29;20044;-74
2022/12/02 02:16:08;;;;;;;82.32;24.80;;;;;;;2.71;100.00;102543.28;4889192;29;20044;-74
2022/12/02 02:18:34;;;;;;;75.18;24.95;;;;;;;2.69;100.00;102538.88;4891267;29;20124;-73
2022/12/02 02:21:00;;;;;;;86.40;25.15;;;;;;;2.70;100.00;102537.97;4871035;29;20036;-72
2022/12/02 02:23:26;;;;;;;79.05;24.60;;;;;;;2.71;100.00;102542.38;4882120;29;20048;-74
2022/12/02 02:25:56;;;;;;;78.95;25.40;;;;;;;2.67;100.00;102540.66;4901714;29;20285;-73
2022/12/02 02:28:27;;;;;;;83.85;26.55;;;;;;;2.67;100.00;102532.75;4888387;29;20059;-74
2022/12/02 02:30:55;;;;;;;91.25;26.83;;;;;;;2.68;100.00;102534.50;4888854;29;20044;-77
2022/12/02 02:33:24;;;;;;;82.78;25.65;;;;;;;2.65;100.00;102529.22;4888184;29;20616;-75
2022/12/02 02:35:50;;;;;;;75.35;23.33;;;;;;;2.68;100.00;102526.59;4889973;29;20041;-74
2022/12/02 02:38:20;;;;;;;76.93;23.15;;;;;;;2.65;100.00;102518.69;4877033;29;20131;-74
2022/12/02 02:40:46;;;;;;;82.53;26.73;;;;;;;2.69;100.00;102523.06;4888484;29;20040;-75
2022/12/02 02:43:15;;;;;;;90.05;26.02;;;;;;;2.66;100.00;102526.59;4874486;29;20043;-71
2022/12/02 02:45:43;;;;;;;75.00;24.92;;;;;;;2.65;100.00;102511.66;4887553;29;20036;-74
2022/12/02 02:48:11;;;;;;;79.53;24.65;;;;;;;2.67;100.00;102516.94;4874545;29;20041;-74
2022/12/02 02:50:39;;;;;;;100.03;27.00;;;;;;;2.65;100.00;102511.66;4887744;29;20864;-75
2022/12/02 02:53:06;;;;;;;79.45;25.15;;;;;;;2.65;100.00;102513.44;4899578;29;20497;-75
2022/12/02 02:55:33;;;;;;;71.28;24.50;;;;;;;2.68;100.00;102508.16;4887586;29;20044;-74
2022/12/02 02:58:12;;;;;;;68.78;21.98;;;;;;;2.62;100.00;102506.44;4887010;29;20040;-74
2022/12/02 03:00:40;;;;;;;61.85;20.88;;;;;;;2.61;100.00;102496.78;4891817;29;20409;-73
2022/12/02 03:03:09;;;;;;;83.65;27.17;;;;;;;2.63;100.00;102486.22;4886760;29;20040;-74
2022/12/02 03:05:35;;;;;;;70.45;23.15;;;;;;;2.62;100.00;102495.91;4889894;29;20489;-74
2022/12/02 03:08:00;;;;;;;74.28;24.10;;;;;;;2.63;100.00;102496.78;4888807;29;20052;-76
2022/12/02 03:10:26;;;;;;;85.35;25.58;;;;;;;2.66;100.00;102479.22;4873833;29;20080;-74
2022/12/02 03:12:52;;;;;;;64.68;20.58;;;;;;;2.64;100.00;102480.94;4888352;29;20091;-75
2022/12/02 03:15:20;;;;;;;76.95;22.35;;;;;;;2.63;100.00;102466.03;4888454;29;20036;-74
2022/12/02 03:17:46;;;;;;;72.13;21.63;;;;;;;2.68;100.00;102479.19;4888462;29;20036;-74
2022/12/02 03:20:12;;;;;;;67.50;20.73;;;;;;;2.63;100.00;102476.56;4887080;29;20379;-74
2022/12/02 03:22:37;;;;;;;71.55;20.05;;;;;;;2.64;100.00;102475.69;4887196;29;20417;-72
2022/12/02 03:25:05;;;;;;;67.10;22.30;;;;;;;2.62;100.00;102469.56;4888099;29;20048;-73
2022/12/02 03:27:31;;;;;;;71.50;22.15;;;;;;;2.63;100.00;102475.69;4882004;29;20049;-74
2022/12/02 03:29:57;;;;;;;81.28;22.40;;;;;;;2.65;100.00;102469.53;4880910;29;20040;-74
2022/12/02 03:32:22;;;;;;;69.18;20.58;;;;;;;2.64;100.00;102480.94;4888557;29;20036;-73
2022/12/02 03:34:48;;;;;;;61.90;20.40;;;;;;;2.62;100.00;102480.09;4888587;29;20865;-76
2022/12/02 03:37:14;;;;;;;71.13;23.23;;;;;;;2.63;100.00;102478.34;4886756;29;20646;-74
2022/12/02 03:39:39;;;;;;;59.58;21.55;;;;;;;2.64;100.00;102477.44;4888354;29;20063;-74
2022/12/02 03:42:05;;;;;;;70.85;19.95;;;;;;;2.64;100.00;102475.69;4879319;29;20041;-73
2022/12/02 03:44:30;;;;;;;66.97;21.10;;;;;;;2.60;100.00;102474.81;4883573;29;20084;-73
2022/12/02 03:46:56;;;;;;;63.05;21.30;;;;;;;2.62;100.00;102480.09;4888085;29;20051;-75
2022/12/02 03:49:22;;;;;;;58.88;20.35;;;;;;;2.63;100.00;102483.59;4888007;29;20640;-76
2022/12/02 03:51:48;;;;;;;65.50;21.33;;;;;;;2.63;100.00;102479.22;4887922;29;20047;-74
2022/12/02 03:54:14;;;;;;;84.70;22.83;;;;;;;2.63;100.00;102475.69;4887989;29;20040;-73
2022/12/02 03:56:41;;;;;;;59.10;18.33;;;;;;;2.64;100.00;102472.19;4886067;29;20060;-74
2022/12/02 03:59:07;;;;;;;52.20;19.55;;;;;;;2.63;100.00;102467.81;4887380;29;20040;-74
2022/12/02 04:01:33;;;;;;;66.95;22.15;;;;;;;2.63;100.00;102471.31;4879668;29;20119;-74
2022/12/02 04:03:58;;;;;;;71.22;22.35;;;;;;;2.66;100.00;102465.13;4886518;29;20036;-72
2022/12/02 04:06:24;;;;;;;69.90;23.00;;;;;;;2.65;100.00;102459.00;4883672;29;20120;-73
2022/12/02 04:08:49;;;;;;;75.97;23.58;;;;;;;2.64;100.00;102459.88;4883377;29;20048;-74
2022/12/02 04:11:15;;;;;;;76.72;22.92;;;;;;;2.62;100.00;102459.03;4876181;29;20044;-73
2022/12/02 04:13:40;;;;;;;55.08;18.80;;;;;;;2.61;100.00;102449.38;4884511;29;20044;-74
2022/12/02 04:16:06;;;;;;;74.68;23.23;;;;;;;2.60;100.00;102440.56;4887076;29;20549;-74
2022/12/02 04:18:32;;;;;;;76.35;23.33;;;;;;;2.60;100.00;102448.47;4886140;29;20044;-74
2022/12/02 04:20:58;;;;;;;71.63;23.27;;;;;;;2.60;100.00;102442.34;4881769;29;20056;-74
2022/12/02 04:23:24;;;;;;;72.80;23.13;;;;;;;2.60;100.00;102448.47;4883276;29;20044;-74
2022/12/02 04:25:49;;;;;;;75.90;24.95;;;;;;;2.59;100.00;102457.28;4880483;29;20036;-72
2022/12/02 04:28:15;;;;;;;69.93;22.48;;;;;;;2.60;100.00;102450.25;4883788;29;20041;-73
2022/12/02 04:30:40;;;;;;;86.45;25.00;;;;;;;2.60;100.00;102439.72;4887438;29;20766;-74
2022/12/02 04:33:05;;;;;;;77.70;23.58;;;;;;;2.60;100.00;102444.97;4885813;29;20609;-76
2022/12/02 04:35:31;;;;;;;83.68;24.70;;;;;;;2.63;100.00;102441.47;4880966;29;20041;-74
2022/12/02 04:37:57;;;;;;;78.55;25.27;;;;;;;2.66;100.00;102437.06;4887084;29;20052;-76
2022/12/02 04:40:22;;;;;;;71.25;22.70;;;;;;;2.62;100.00;102442.34;4879076;29;20055;-75
2022/12/02 04:42:48;;;;;;;65.75;22.30;;;;;;;2.56;100.00;102444.13;4884585;29;20052;-77
2022/12/02 04:45:14;;;;;;;77.70;23.67;;;;;;;2.60;100.00;102443.22;4878459;29;20122;-73
2022/12/02 04:47:39;;;;;;;71.68;20.40;;;;;;;2.57;100.00;102447.63;4887739;29;20063;-73
2022/12/02 04:50:06;;;;;;;58.92;19.27;;;;;;;2.56;100.00;102440.59;4881925;29;20043;-74
2022/12/02 04:52:32;;;;;;;61.33;19.80;;;;;;;2.53;100.00;102438.88;4881849;29;20462;-77
2022/12/02 04:54:57;;;;;;;60.47;19.45;;;;;;;2.54;100.00;102437.09;4886056;29;20109;-76
2022/12/02 04:57:23;;;;;;;60.20;20.25;;;;;;;2.56;100.00;102438.88;4886910;29;20047;-74
2022/12/02 04:59:48;;;;;;;57.58;20.40;;;;;;;2.54;100.00;102430.09;4884967;29;20048;-76
2022/12/02 05:02:14;;;;;;;56.92;18.45;;;;;;;2.54;100.00;102431.84;4886902;29;20052;-74
2022/12/02 05:04:39;;;;;;;51.30;16.55;;;;;;;2.54;100.00;102419.56;4885056;29;20036;-73
2022/12/02 05:07:04;;;;;;;55.85;19.38;;;;;;;2.54;100.00;102413.41;4893222;29;20041;-74
2022/12/02 05:09:30;;;;;;;65.13;18.02;;;;;;;2.54;100.00;102414.28;4885575;29;20052;-76
2022/12/02 05:11:55;;;;;;;51.40;17.95;;;;;;;2.51;100.00;102409.06;4887027;29;20123;-76
2022/12/02 05:14:21;;;;;;;52.67;17.30;;;;;;;2.48;100.00;102403.78;4886877;29;20637;-75
2022/12/02 05:16:46;;;;;;;60.15;18.50;;;;;;;2.48;100.00;102406.41;4886352;29;20061;-76
2022/12/02 05:19:12;;;;;;;66.97;20.73;;;;;;;2.45;100.00;102405.56;4887214;29;20797;-75
2022/12/02 05:21:37;;;;;;;52.03;18.95;;;;;;;2.41;100.00;102420.50;4886818;29;20052;-75
2022/12/02 05:24:03;;;;;;;60.05;19.02;;;;;;;2.40;100.00;102418.72;4886791;29;20048;-76
2022/12/02 05:26:28;;;;;;;59.03;19.40;;;;;;;2.44;100.00;102414.34;4886797;29;20044;-76
2022/12/02 05:28:54;;;;;;;63.28;22.60;;;;;;;2.43;100.00;102420.50;4885835;29;20056;-75
2022/12/02 05:31:19;;;;;;;67.30;19.38;;;;;;;2.42;100.00;102414.34;4890581;29;20041;-74
2022/12/02 05:33:45;;;;;;;54.25;19.45;;;;;;;2.40;100.00;102421.38;4890571;29;20084;-75
2022/12/02 05:36:11;;;;;;;60.42;19.52;;;;;;;2.36;100.00;102411.75;4890595;29;20036;-75
2022/12/02 05:38:38;;;;;;;59.53;20.10;;;;;;;2.36;100.00;102416.13;4891389;29;20449;-76
2022/12/02 05:41:04;;;;;;;62.08;22.33;;;;;;;2.36;100.00;102414.38;4891067;29;20482;-76
2022/12/02 05:43:38;;;;;;;62.65;20.77;;;;;;;2.33;100.00;102414.38;4888945;29;20067;-74
2022/12/02 05:46:11;;;;;;;63.63;22.63;;;;;;;2.34;100.00;102424.03;4890326;29;20570;-74
2022/12/02 05:48:36;;;;;;;59.20;18.45;;;;;;;2.31;100.00;102414.41;4891814;29;20084;-75
2022/12/02 05:51:08;;;;;;;62.35;21.02;;;;;;;2.29;100.00;102413.50;4876292;29;20490;-74
2022/12/02 05:53:34;;;;;;;65.07;24.95;;;;;;;2.30;100.00;102410.00;4889754;29;20055;-74
2022/12/02 05:56:00;;;;;;;77.30;22.95;;;;;;;2.26;100.00;102420.53;4890046;29;20040;-74
2022/12/02 05:58:26;;;;;;;69.75;22.33;;;;;;;2.25;100.00;102411.78;4888155;29;20062;-75
2022/12/02 06:00:57;;;;;;;71.20;23.90;;;;;;;2.26;100.00;102407.38;4895321;29;20473;-75
2022/12/02 06:03:23;;;;;;;66.82;20.42;;;;;;;2.20;100.00;102403.00;4890551;29;20131;-73
2022/12/02 06:05:49;;;;;;;59.47;20.05;;;;;;;2.18;100.00;102415.31;4890891;29;20044;-73
2022/12/02 06:08:18;;;;;;;68.47;21.13;;;;;;;2.19;100.00;102411.78;4890912;29;20482;-74
2022/12/02 06:10:56;;;;;;;64.00;20.33;;;;;;;2.20;100.00;102400.38;4888902;29;20064;-74
2022/12/02 06:13:25;;;;;;;64.75;23.17;;;;;;;2.17;100.00;102403.03;4890034;29;20470;-74
2022/12/02 06:15:50;;;;;;;72.40;23.45;;;;;;;2.18;100.00;102403.91;4888288;29;20037;-73
2022/12/02 06:18:22;;;;;;;69.75;23.13;;;;;;;2.15;100.00;102404.78;4888300;29;20077;-75
2022/12/02 06:20:54;;;;;;;79.68;23.52;;;;;;;2.14;100.00;102413.56;4889600;29;20037;-75
2022/12/02 06:23:20;;;;;;;68.10;21.58;;;;;;;2.13;100.00;102418.84;4888607;29;20569;-74
2022/12/02 06:25:48;;;;;;;69.60;23.33;;;;;;;2.15;100.00;102402.16;4890196;29;20036;-74
2022/12/02 06:28:19;;;;;;;53.92;19.50;;;;;;;2.15;100.00;102407.41;4890606;29;20144;-72
2022/12/02 06:30:45;;;;;;;73.72;20.70;;;;;;;2.13;100.00;102409.19;4874057;29;20049;-74
2022/12/02 06:33:22;;;;;;;73.63;22.73;;;;;;;2.13;100.00;102414.44;4882099;29;20147;-75
2022/12/02 06:35:48;;;;;;;72.55;22.15;;;;;;;2.15;100.00;102407.41;4888721;29;20924;-75
2022/12/02 06:38:25;;;;;;;57.40;21.75;;;;;;;2.15;100.00;102423.22;4890041;29;20041;-74
2022/12/02 06:40:50;;;;;;;66.38;21.45;;;;;;;2.14;100.00;102415.31;4889479;29;20056;-74
2022/12/02 06:43:28;;;;;;;63.03;19.88;;;;;;;2.15;100.00;102415.31;4890133;29;20044;-74
2022/12/02 06:45:54;;;;;;;67.82;22.40;;;;;;;2.16;100.00;102414.47;4888126;29;20048;-73
2022/12/02 06:48:35;;;;;;;65.47;22.42;;;;;;;2.14;100.00;102416.19;4902159;29;20047;-73
2022/12/02 06:51:30;;;;;;;70.50;20.83;;;;;;;2.13;100.00;102417.09;4889589;29;20052;-75
2022/12/02 06:53:56;;;;;;;64.90;22.27;;;;;;;2.16;100.00;102414.47;4876342;29;20052;-75
2022/12/02 06:56:30;;;;;;;57.13;20.52;;;;;;;2.14;100.00;102410.06;4889573;29;20055;-74
2022/12/02 06:59:03;;;;;;;59.83;21.35;;;;;;;2.13;100.00;102424.09;4887812;29;20124;-75
2022/12/02 07:01:32;;;;;;;52.25;19.05;;;;;;;2.06;100.00;102416.25;4886749;29;20494;-74
2022/12/02 07:04:07;;;;;;;65.47;21.30;;;;;;;2.05;100.00;102416.22;4889011;29;20051;-73
2022/12/02 07:06:36;;;;;;;60.05;20.67;;;;;;;2.08;100.00;102419.72;4888573;29;20069;-73
2022/12/02 07:09:05;;;;;;;64.13;20.80;;;;;;;2.04;100.00;102417.97;4888116;29;20044;-74
2022/12/02 07:11:52;;;;;;;74.03;22.20;;;;;;;2.03;100.00;102420.63;4888868;29;20554;-74
2022/12/02 07:14:20;;;;;;;70.78;19.88;;;;;;;1.97;100.00;102421.50;4887330;29;20032;-74
2022/12/02 07:16:47;;;;;;;59.10;17.55;;;;;;;1.95;100.00;102441.66;4878635;29;20056;-76
2022/12/02 07:19:17;;;;;;;64.78;19.05;;;;;;;1.93;100.00;102432.03;4887386;29;20041;-74
2022/12/02 07:21:43;;;;;;;71.43;20.10;;;;;;;1.88;100.00;102432.06;4886040;29;20690;-75
2022/12/02 07:24:16;;;;;;;72.13;20.67;;;;;;;1.85;100.00;102432.03;4887914;29;20033;-74
2022/12/02 07:26:44;;;;;;;67.07;20.60;;;;;;;1.83;100.00;102433.81;4880696;29;20045;-75
2022/12/02 07:29:14;;;;;;;74.90;20.77;;;;;;;1.82;100.00;102434.69;4876911;29;20047;-75
2022/12/02 07:31:43;;;;;;;72.22;19.73;;;;;;;1.83;100.00;102440.84;4882344;29;20565;-74
2022/12/02 07:34:10;;;;;;;67.55;19.25;;;;;;;1.82;100.00;102439.97;4885696;29;20067;-75
2022/12/02 07:36:36;;;;;;;78.05;22.45;;;;;;;1.80;100.00;102431.19;4880585;29;20041;-74
2022/12/02 07:39:01;;;;;;;71.25;19.88;;;;;;;1.83;100.00;102439.06;4881641;29;20092;-74
2022/12/02 07:41:27;;;;;;;94.43;25.40;;;;;;;1.84;100.00;102439.94;4882684;29;20033;-75
2022/12/02 07:43:53;;;;;;;64.05;20.10;;;;;;;1.81;100.00;102438.22;4882154;29;20036;-74
2022/12/02 07:46:19;;;;;;;85.78;24.00;;;;;;;1.85;100.00;102436.44;4885923;29;20056;-75
2022/12/02 07:48:45;;;;;;;88.55;24.33;;;;;;;1.86;100.00;102436.44;4885468;29;20070;-75
2022/12/02 07:51:10;;;;;;;82.97;22.85;;;;;;;1.87;100.00;102439.97;4882016;29;20040;-75
2022/12/02 07:53:36;;;;;;;79.38;22.40;;;;;;;1.85;100.00;102436.44;4878929;29;20685;-74
2022/12/02 07:56:01;;;;;;;87.80;27.23;;;;;;;1.90;100.00;102432.91;4887445;29;20112;-75
2022/12/02 07:58:27;;;;;;;73.35;24.33;;;;;;;1.85;100.00;102442.56;4879751;29;20044;-75
2022/12/02 08:00:52;;;;;;;98.32;24.25;;;;;;;1.87;100.00;102432.06;4885614;29;20200;-74
2022/12/02 08:03:17;;;;;;;104.15;25.92;;;;;;;1.88;100.00;102437.31;4886130;29;20064;-74
2022/12/02 08:05:43;;;;;;;99.40;23.05;;;;;;;1.87;100.00;102435.56;4882692;29;20163;-75
2022/12/02 08:08:08;;;;;;;96.53;25.73;;;;;;;1.86;100.00;102446.06;4874939;29;20056;-74
2022/12/02 08:10:34;;;;;;;97.97;27.02;;;;;;;1.90;100.00;102445.19;4882178;29;20055;-75
2022/12/02 08:12:59;;;;;;;81.78;23.15;;;;;;;1.91;100.00;102447.84;4885122;29;20044;-73
2022/12/02 08:15:25;;;;;;;83.97;22.95;;;;;;;1.95;100.00;102443.44;4879786;29;20075;-74
2022/12/02 08:17:50;;;;;;;84.53;24.98;;;;;;;1.97;100.00;102439.06;4880959;29;20052;-75
2022/12/02 08:20:16;;;;;;;99.18;23.60;;;;;;;1.96;100.00;102439.94;4887766;29;20056;-74
2022/12/02 08:22:41;;;;;;;94.88;24.48;;;;;;;1.97;100.00;102444.31;4884754;29;20101;-75
2022/12/02 08:25:07;;;;;;;108.35;25.13;;;;;;;1.97;100.00;102434.66;4876169;29;20045;-73
2022/12/02 08:27:32;;;;;;;110.22;26.58;;;;;;;2.02;100.00;102432.03;4878960;29;20528;-72
2022/12/02 08:29:58;;;;;;;98.28;25.58;;;;;;;2.03;100.00;102437.28;4883600;29;20076;-74
2022/12/02 08:32:23;;;;;;;91.43;24.73;;;;;;;2.07;100.00;102438.16;4885961;29;20124;-75
2022/12/02 08:34:49;;;;;;;108.35;27.25;;;;;;;2.10;100.00;102439.88;4882852;29;20115;-74
2022/12/02 08:37:14;;;;;;;104.15;25.40;;;;;;;2.07;100.00;102440.78;4879598;29;20040;-74
2022/12/02 08:39:40;;;;;;;97.43;26.10;;;;;;;2.09;100.00;102441.66;4880628;29;20095;-73
2022/12/02 08:42:06;;;;;;;89.85;23.60;;;;;;;2.08;100.00;102447.78;4893665;29;20060;-74
2022/12/02 08:44:32;;;;;;;100.55;26.58;;;;;;;2.07;100.00;102449.56;4886480;29;20041;-73
2022/12/02 08:46:58;;;;;;;90.70;26.15;;;;;;;2.11;100.00;102434.66;4891575;29;20054;-75
2022/12/02 08:49:23;;;;;;;100.07;27.27;;;;;;;2.12;100.00;102439.03;4885050;29;20113;-75
2022/12/02 08:51:49;;;;;;;101.63;24.73;;;;;;;2.14;100.00;102431.97;4886367;29;20768;-75
2022/12/02 08:54:14;;;;;;;85.50;25.17;;;;;;;2.14;100.00;102434.63;4886315;29;20241;-73
2022/12/02 08:56:41;;;;;;;93.93;25.08;;;;;;;2.15;100.00;102438.13;4884031;29;20043;-74
2022/12/02 08:59:07;;;;;;;99.30;25.90;;;;;;;2.15;100.00;102436.34;4885654;29;20036;-74
2022/12/02 09:01:32;;;;;;;101.38;25.77;;;;;;;2.18;100.00;102433.72;4880070;29;20402;-74
2022/12/02 09:03:58;;;;;;;100.45;27.98;;;;;;;2.17;100.00;102434.63;4880591;29;20066;-74
2022/12/02 09:06:23;;;;;;;104.95;25.88;;;;;;;2.17;100.00;102428.50;4887715;29;20045;-74
2022/12/02 09:08:49;;;;;;;107.82;27.23;;;;;;;2.14;100.00;102439.88;4889148;29;20021;-75
2022/12/02 09:11:14;;;;;;;113.78;29.27;;;;;;;2.20;100.00;102424.06;4887415;29;20056;-74
2022/12/02 09:13:40;;;;;;;100.40;24.15;;;;;;;2.21;100.00;102436.38;4901270;29;20064;-75
2022/12/02 09:16:05;;;;;;;95.20;23.88;;;;;;;2.20;100.00;102450.38;4885842;29;20099;-75
2022/12/02 09:18:31;;;;;;;98.55;26.40;;;;;;;2.18;100.00;102441.63;4881715;29;20075;-75
2022/12/02 09:20:56;;;;;;;98.57;25.48;;;;;;;2.24;100.00;102441.59;4888692;29;20041;-72
2022/12/02 09:23:22;;;;;;;84.57;22.80;;;;;;;2.20;100.00;102431.09;4889611;29;20037;-75
2022/12/02 09:25:47;;;;;;;77.35;22.88;;;;;;;2.25;100.00;102437.22;4898357;29;20607;-75
2022/12/02 09:28:13;;;;;;;87.50;25.17;;;;;;;2.27;100.00;102433.72;4887281;29;20801;-75
2022/12/02 09:30:38;;;;;;;97.68;26.70;;;;;;;2.27;100.00;102423.19;4890427;29;20035;-73
2022/12/02 09:33:04;;;;;;;91.32;23.95;;;;;;;2.28;100.00;102430.19;4888558;29;20521;-75
2022/12/02 09:35:29;;;;;;;91.18;24.25;;;;;;;2.30;100.00;102423.16;4889528;29;20860;-74
2022/12/02 09:37:55;;;;;;;72.05;20.13;;;;;;;2.31;100.00;102421.44;4890108;29;20581;-75
2022/12/02 09:40:21;;;;;;;73.22;22.13;;;;;;;2.32;100.00;102428.44;4893452;29;20386;-75
2022/12/02 09:42:46;;;;;;;61.30;17.95;;;;;;;2.38;100.00;102424.91;4889340;29;20048;-74
2022/12/02 09:45:12;;;;;;;78.22;19.52;;;;;;;2.39;100.00;102418.75;4889917;29;20048;-75
2022/12/02 09:47:39;;;;;;;90.88;22.10;;;;;;;2.43;100.00;102421.38;4889459;29;20036;-73
2022/12/02 09:50:05;;;;;;;70.53;20.75;;;;;;;2.47;100.00;102424.88;4889269;29;20076;-75
2022/12/02 09:52:31;;;;;;;71.90;20.23;;;;;;;2.49;100.00;102418.69;4888729;29;20500;-75
2022/12/02 09:54:58;;;;;;;72.50;19.60;;;;;;;2.45;100.00;102421.34;4887132;29;20045;-72
2022/12/02 09:57:30;;;;;;;61.95;20.30;;;;;;;2.49;100.00;102429.22;4888147;29;20409;-72
2022/12/02 09:59:57;;;;;;;62.47;20.57;;;;;;;2.43;100.00;102431.91;4870389;29;20057;-74
2022/12/02 10:02:39;;;;;;;61.13;19.02;;;;;;;2.51;100.00;102414.31;4888918;29;20088;-73
2022/12/02 10:05:14;;;;;;;76.22;20.15;;;;;;;2.54;100.00;102408.16;4888523;29;20056;-76
2022/12/02 10:07:42;;;;;;;75.88;21.33;;;;;;;2.58;100.00;102416.03;4889001;29;20051;-74
2022/12/02 10:10:12;;;;;;;71.45;19.73;;;;;;;2.76;100.00;102419.44;4886854;29;20432;-74
2022/12/02 10:12:38;;;;;;;66.80;19.15;;;;;;;2.72;100.00;102404.56;4884856;29;20071;-75
2022/12/02 10:15:04;;;;;;;57.67;18.38;;;;;;;2.63;100.00;102416.00;4886610;29;20045;-73
2022/12/02 10:17:30;;;;;;;64.85;18.80;;;;;;;2.69;100.00;102412.47;4873662;29;20044;-74
2022/12/02 10:19:55;;;;;;;71.65;22.65;;;;;;;2.68;100.00;102416.84;4888619;29;20044;-74
2022/12/02 10:22:21;;;;;;;70.03;20.02;;;;;;;2.56;100.00;102414.25;4888755;29;20095;-74
2022/12/02 10:24:47;;;;;;;69.28;19.45;;;;;;;2.62;100.00;102416.03;4868117;29;20037;-74
2022/12/02 10:27:30;;;;;;;65.45;18.58;;;;;;;2.53;100.00;102420.44;4880631;29;20379;-72
2022/12/02 10:30:26;;;;;;;90.45;22.88;;;;;;;2.58;100.00;102423.91;4874846;29;20043;-73
2022/12/02 10:33:05;;;;;;;69.85;18.45;;;;;;;2.70;100.00;102412.44;4881760;29;20577;-73
2022/12/02 10:35:49;;;;;;;74.53;20.10;;;;;;;2.89;100.00;102409.72;4886660;29;20047;-75
2022/12/02 10:38:38;;;;;;;77.30;20.55;;;;;;;2.82;100.00;102401.84;4886627;29;20056;-74
2022/12/02 10:41:17;;;;;;;65.35;18.48;;;;;;;2.71;100.00;102400.16;4888142;29;20041;-73
2022/12/02 10:44:00;;;;;;;72.70;21.27;;;;;;;2.68;100.00;102400.19;4885455;29;20033;-74
2022/12/02 10:46:26;;;;;;;59.97;16.40;;;;;;;2.81;100.00;102410.66;4882483;29;20120;-75
2022/12/02 10:48:52;;;;;;;68.03;20.83;;;;;;;2.69;100.00;102400.16;4886876;29;20032;-74
2022/12/02 10:51:20;;;;;;;65.60;19.27;;;;;;;2.78;100.00;102405.38;4887519;29;20044;-75
2022/12/02 10:53:49;;;;;;;67.82;17.77;;;;;;;2.84;100.00;102392.16;4885514;29;20592;-75
2022/12/02 10:56:19;;;;;;;73.78;18.90;;;;;;;2.98;100.00;102394.72;4876016;29;20084;-73
2022/12/02 10:58:46;;;;;;;58.42;17.58;;;;;;;2.99;100.00;102398.22;4875982;29;20040;-73
2022/12/02 11:01:12;;;;;;;60.85;18.80;;;;;;;2.92;100.00;102399.16;4878756;29;20044;-74
2022/12/02 11:03:41;;;;;;;71.30;18.63;;;;;;;2.74;100.00;102397.50;4876547;29;20043;-72
2022/12/02 11:06:21;;;;;;;60.13;17.75;;;;;;;2.71;100.00;102392.25;4886408;29;20841;-74
2022/12/02 11:08:48;;;;;;;67.22;20.10;;;;;;;2.68;100.00;102394.91;4886323;29;20041;-73
2022/12/02 11:11:16;;;;;;;58.63;17.83;;;;;;;2.51;100.00;102409.06;4887755;29;20048;-73
2022/12/02 11:13:55;;;;;;;64.82;17.20;;;;;;;2.46;100.00;102394.13;4884294;29;20044;-74
2022/12/02 11:16:45;;;;;;;70.22;20.42;;;;;;;2.46;100.00;102392.41;4885828;29;20828;-74